sensor_id;sensor_type;location;lat;lon;timestamp;P1;durP1;ratioP1;P2;durP2;ratioP2
61960;SDS011;47923;42.506;24.192;2023-05-07T00:01:43;9.20;;;5.38;;
61960;SDS011;47923;42.506;24.192;2023-05-07T00:04:08;9.93;;;6.00;;
61960;SDS011;47923;42.506;24.192;2023-05-07T00:06:34;10.05;;;5.38;;
61960;SDS011;47923;42.506;24.192;2023-05-07T00:09:00;8.40;;;5.20;;
61960;SDS011;47923;42.506;24.192;2023-05-07T00:11:26;9.07;;;4.80;;
61960;SDS011;47923;42.506;24.192;2023-05-07T00:13:53;8.93;;;5.55;;
61960;SDS011;47923;42.506;24.192;2023-05-07T00:16:21;8.43;;;5.20;;
61960;SDS011;47923;42.506;24.192;2023-05-07T00:18:46;10.98;;;5.15;;
61960;SDS011;47923;42.506;24.192;2023-05-07T00:21:12;11.35;;;5.63;;
61960;SDS011;47923;42.506;24.192;2023-05-07T00:23:37;11.00;;;6.32;;
61960;SDS011;47923;42.506;24.192;2023-05-07T00:26:03;12.85;;;5.95;;
61960;SDS011;47923;42.506;24.192;2023-05-07T00:28:29;10.00;;;6.30;;
61960;SDS011;47923;42.506;24.192;2023-05-07T00:30:55;11.90;;;7.13;;
61960;SDS011;47923;42.506;24.192;2023-05-07T00:33:20;13.43;;;6.32;;
61960;SDS011;47923;42.506;24.192;2023-05-07T00:35:47;11.05;;;6.35;;
61960;SDS011;47923;42.506;24.192;2023-05-07T00:38:13;9.98;;;5.88;;
61960;SDS011;47923;42.506;24.192;2023-05-07T00:40:39;9.98;;;6.72;;
61960;SDS011;47923;42.506;24.192;2023-05-07T00:43:04;11.55;;;6.13;;
61960;SDS011;47923;42.506;24.192;2023-05-07T00:45:32;10.40;;;5.05;;
61960;SDS011;47923;42.506;24.192;2023-05-07T00:47:59;12.18;;;5.82;;
61960;SDS011;47923;42.506;24.192;2023-05-07T00:50:26;14.93;;;7.63;;
61960;SDS011;47923;42.506;24.192;2023-05-07T00:52:53;10.38;;;6.32;;
61960;SDS011;47923;42.506;24.192;2023-05-07T00:55:18;11.70;;;6.45;;
61960;SDS011;47923;42.506;24.192;2023-05-07T00:57:45;12.00;;;6.15;;
61960;SDS011;47923;42.506;24.192;2023-05-07T01:00:10;11.75;;;5.57;;
61960;SDS011;47923;42.506;24.192;2023-05-07T01:02:41;9.23;;;5.32;;
61960;SDS011;47923;42.506;24.192;2023-05-07T01:05:07;11.68;;;6.88;;
61960;SDS011;47923;42.506;24.192;2023-05-07T01:07:37;8.82;;;6.47;;
61960;SDS011;47923;42.506;24.192;2023-05-07T01:10:05;9.02;;;6.18;;
61960;SDS011;47923;42.506;24.192;2023-05-07T01:12:31;11.65;;;6.00;;
61960;SDS011;47923;42.506;24.192;2023-05-07T01:14:58;12.32;;;7.00;;
61960;SDS011;47923;42.506;24.192;2023-05-07T01:17:23;11.70;;;6.60;;
61960;SDS011;47923;42.506;24.192;2023-05-07T01:19:49;10.40;;;6.60;;
61960;SDS011;47923;42.506;24.192;2023-05-07T01:22:18;10.57;;;6.57;;
61960;SDS011;47923;42.506;24.192;2023-05-07T01:24:57;11.23;;;7.10;;
61960;SDS011;47923;42.506;24.192;2023-05-07T01:27:24;12.20;;;7.55;;
61960;SDS011;47923;42.506;24.192;2023-05-07T01:29:50;11.27;;;7.35;;
61960;SDS011;47923;42.506;24.192;2023-05-07T01:32:16;10.30;;;6.68;;
61960;SDS011;47923;42.506;24.192;2023-05-07T01:34:53;11.40;;;7.60;;
61960;SDS011;47923;42.506;24.192;2023-05-07T01:37:20;10.30;;;6.22;;
61960;SDS011;47923;42.506;24.192;2023-05-07T01:39:46;11.23;;;6.78;;
61960;SDS011;47923;42.506;24.192;2023-05-07T01:42:13;9.10;;;5.50;;
61960;SDS011;47923;42.506;24.192;2023-05-07T01:44:38;11.45;;;6.47;;
61960;SDS011;47923;42.506;24.192;2023-05-07T01:47:04;11.13;;;7.05;;
61960;SDS011;47923;42.506;24.192;2023-05-07T01:49:31;11.25;;;6.60;;
61960;SDS011;47923;42.506;24.192;2023-05-07T01:51:57;11.13;;;5.50;;
61960;SDS011;47923;42.506;24.192;2023-05-07T01:54:26;9.43;;;5.93;;
61960;SDS011;47923;42.506;24.192;2023-05-07T01:56:53;13.80;;;6.72;;
61960;SDS011;47923;42.506;24.192;2023-05-07T01:59:20;12.70;;;6.30;;
61960;SDS011;47923;42.506;24.192;2023-05-07T02:01:46;9.18;;;6.18;;
61960;SDS011;47923;42.506;24.192;2023-05-07T02:04:11;9.40;;;5.47;;
61960;SDS011;47923;42.506;24.192;2023-05-07T02:06:36;8.73;;;6.00;;
61960;SDS011;47923;42.506;24.192;2023-05-07T02:09:02;10.90;;;6.38;;
61960;SDS011;47923;42.506;24.192;2023-05-07T02:11:27;10.00;;;6.13;;
61960;SDS011;47923;42.506;24.192;2023-05-07T02:13:53;9.07;;;5.55;;
61960;SDS011;47923;42.506;24.192;2023-05-07T02:16:18;8.63;;;5.57;;
61960;SDS011;47923;42.506;24.192;2023-05-07T02:18:45;9.48;;;6.25;;
61960;SDS011;47923;42.506;24.192;2023-05-07T02:21:10;11.88;;;6.85;;
61960;SDS011;47923;42.506;24.192;2023-05-07T02:23:35;9.82;;;5.45;;
61960;SDS011;47923;42.506;24.192;2023-05-07T02:26:01;21.27;;;7.57;;
61960;SDS011;47923;42.506;24.192;2023-05-07T02:28:29;11.00;;;5.60;;
61960;SDS011;47923;42.506;24.192;2023-05-07T02:30:55;11.38;;;7.13;;
61960;SDS011;47923;42.506;24.192;2023-05-07T02:33:20;10.98;;;6.28;;
61960;SDS011;47923;42.506;24.192;2023-05-07T02:35:46;10.85;;;6.38;;
61960;SDS011;47923;42.506;24.192;2023-05-07T02:38:11;10.88;;;5.80;;
61960;SDS011;47923;42.506;24.192;2023-05-07T02:40:37;9.35;;;5.95;;
61960;SDS011;47923;42.506;24.192;2023-05-07T02:43:05;9.10;;;5.90;;
61960;SDS011;47923;42.506;24.192;2023-05-07T02:45:32;8.98;;;5.53;;
61960;SDS011;47923;42.506;24.192;2023-05-07T02:47:57;10.70;;;5.38;;
61960;SDS011;47923;42.506;24.192;2023-05-07T02:50:23;9.43;;;5.47;;
61960;SDS011;47923;42.506;24.192;2023-05-07T02:52:49;9.38;;;5.15;;
61960;SDS011;47923;42.506;24.192;2023-05-07T02:55:15;11.70;;;6.13;;
61960;SDS011;47923;42.506;24.192;2023-05-07T02:57:40;10.23;;;6.45;;
61960;SDS011;47923;42.506;24.192;2023-05-07T03:00:12;9.35;;;6.18;;
61960;SDS011;47923;42.506;24.192;2023-05-07T03:02:39;11.00;;;6.32;;
61960;SDS011;47923;42.506;24.192;2023-05-07T03:05:05;9.65;;;5.60;;
61960;SDS011;47923;42.506;24.192;2023-05-07T03:07:31;10.75;;;5.72;;
61960;SDS011;47923;42.506;24.192;2023-05-07T03:09:59;12.73;;;6.03;;
61960;SDS011;47923;42.506;24.192;2023-05-07T03:12:27;9.90;;;6.00;;
61960;SDS011;47923;42.506;24.192;2023-05-07T03:14:52;9.60;;;5.75;;
61960;SDS011;47923;42.506;24.192;2023-05-07T03:17:18;8.98;;;5.88;;
61960;SDS011;47923;42.506;24.192;2023-05-07T03:19:46;10.35;;;5.53;;
61960;SDS011;47923;42.506;24.192;2023-05-07T03:22:12;8.13;;;5.45;;
61960;SDS011;47923;42.506;24.192;2023-05-07T03:24:37;10.05;;;6.03;;
61960;SDS011;47923;42.506;24.192;2023-05-07T03:27:03;10.48;;;6.75;;
61960;SDS011;47923;42.506;24.192;2023-05-07T03:29:28;9.02;;;6.38;;
61960;SDS011;47923;42.506;24.192;2023-05-07T03:31:54;11.63;;;7.18;;
61960;SDS011;47923;42.506;24.192;2023-05-07T03:34:19;12.65;;;7.75;;
61960;SDS011;47923;42.506;24.192;2023-05-07T03:36:50;11.02;;;6.82;;
61960;SDS011;47923;42.506;24.192;2023-05-07T03:39:15;10.25;;;6.68;;
61960;SDS011;47923;42.506;24.192;2023-05-07T03:41:41;10.00;;;6.20;;
61960;SDS011;47923;42.506;24.192;2023-05-07T03:44:06;12.73;;;6.93;;
61960;SDS011;47923;42.506;24.192;2023-05-07T03:46:32;9.57;;;5.97;;
61960;SDS011;47923;42.506;24.192;2023-05-07T03:49:00;10.38;;;6.47;;
61960;SDS011;47923;42.506;24.192;2023-05-07T03:51:26;10.45;;;6.63;;
61960;SDS011;47923;42.506;24.192;2023-05-07T03:53:52;12.05;;;7.05;;
61960;SDS011;47923;42.506;24.192;2023-05-07T03:56:22;9.85;;;6.88;;
61960;SDS011;47923;42.506;24.192;2023-05-07T03:58:51;8.30;;;6.03;;
61960;SDS011;47923;42.506;24.192;2023-05-07T04:01:17;9.95;;;6.72;;
61960;SDS011;47923;42.506;24.192;2023-05-07T04:03:42;11.18;;;6.60;;
61960;SDS011;47923;42.506;24.192;2023-05-07T04:06:08;14.10;;;6.07;;
61960;SDS011;47923;42.506;24.192;2023-05-07T04:08:33;13.32;;;6.18;;
61960;SDS011;47923;42.506;24.192;2023-05-07T04:10:59;24.02;;;13.35;;
61960;SDS011;47923;42.506;24.192;2023-05-07T04:13:25;63.78;;;37.72;;
61960;SDS011;47923;42.506;24.192;2023-05-07T04:15:51;55.40;;;35.63;;
61960;SDS011;47923;42.506;24.192;2023-05-07T04:18:17;49.35;;;31.60;;
61960;SDS011;47923;42.506;24.192;2023-05-07T04:20:42;18.65;;;12.20;;
61960;SDS011;47923;42.506;24.192;2023-05-07T04:23:08;13.43;;;7.38;;
61960;SDS011;47923;42.506;24.192;2023-05-07T04:25:33;10.75;;;5.03;;
61960;SDS011;47923;42.506;24.192;2023-05-07T04:27:59;13.77;;;6.53;;
61960;SDS011;47923;42.506;24.192;2023-05-07T04:30:25;7.78;;;4.38;;
61960;SDS011;47923;42.506;24.192;2023-05-07T04:32:51;9.65;;;4.15;;
61960;SDS011;47923;42.506;24.192;2023-05-07T04:35:17;8.30;;;4.47;;
61960;SDS011;47923;42.506;24.192;2023-05-07T04:37:43;11.75;;;6.00;;
61960;SDS011;47923;42.506;24.192;2023-05-07T04:40:09;8.43;;;5.03;;
61960;SDS011;47923;42.506;24.192;2023-05-07T04:42:35;15.35;;;10.52;;
61960;SDS011;47923;42.506;24.192;2023-05-07T04:45:01;12.77;;;9.15;;
61960;SDS011;47923;42.506;24.192;2023-05-07T04:47:27;22.70;;;16.83;;
61960;SDS011;47923;42.506;24.192;2023-05-07T04:49:52;13.07;;;9.25;;
61960;SDS011;47923;42.506;24.192;2023-05-07T04:52:18;11.73;;;7.93;;
61960;SDS011;47923;42.506;24.192;2023-05-07T04:54:43;10.90;;;6.78;;
61960;SDS011;47923;42.506;24.192;2023-05-07T04:57:08;10.98;;;7.47;;
61960;SDS011;47923;42.506;24.192;2023-05-07T04:59:34;10.68;;;7.72;;
61960;SDS011;47923;42.506;24.192;2023-05-07T05:02:00;13.93;;;8.45;;
61960;SDS011;47923;42.506;24.192;2023-05-07T05:04:26;15.23;;;9.20;;
61960;SDS011;47923;42.506;24.192;2023-05-07T05:06:52;11.77;;;7.85;;
61960;SDS011;47923;42.506;24.192;2023-05-07T05:09:17;17.20;;;9.23;;
61960;SDS011;47923;42.506;24.192;2023-05-07T05:11:43;14.07;;;10.57;;
61960;SDS011;47923;42.506;24.192;2023-05-07T05:14:09;13.55;;;8.30;;
61960;SDS011;47923;42.506;24.192;2023-05-07T05:16:34;11.38;;;8.00;;
61960;SDS011;47923;42.506;24.192;2023-05-07T05:19:01;12.38;;;8.20;;
61960;SDS011;47923;42.506;24.192;2023-05-07T05:21:27;10.35;;;7.95;;
61960;SDS011;47923;42.506;24.192;2023-05-07T05:23:53;14.57;;;8.60;;
61960;SDS011;47923;42.506;24.192;2023-05-07T05:26:19;12.38;;;8.82;;
61960;SDS011;47923;42.506;24.192;2023-05-07T05:28:46;12.20;;;9.35;;
61960;SDS011;47923;42.506;24.192;2023-05-07T05:31:11;10.55;;;8.70;;
61960;SDS011;47923;42.506;24.192;2023-05-07T05:33:37;13.27;;;8.43;;
61960;SDS011;47923;42.506;24.192;2023-05-07T05:36:03;11.38;;;7.88;;
61960;SDS011;47923;42.506;24.192;2023-05-07T05:38:29;11.10;;;8.27;;
61960;SDS011;47923;42.506;24.192;2023-05-07T05:40:54;12.25;;;10.57;;
61960;SDS011;47923;42.506;24.192;2023-05-07T05:43:20;10.60;;;8.82;;
61960;SDS011;47923;42.506;24.192;2023-05-07T05:45:45;13.05;;;8.68;;
61960;SDS011;47923;42.506;24.192;2023-05-07T05:48:11;11.18;;;8.15;;
61960;SDS011;47923;42.506;24.192;2023-05-07T05:50:36;8.70;;;6.57;;
61960;SDS011;47923;42.506;24.192;2023-05-07T05:53:02;11.60;;;7.65;;
61960;SDS011;47923;42.506;24.192;2023-05-07T05:55:27;12.02;;;8.02;;
61960;SDS011;47923;42.506;24.192;2023-05-07T05:57:53;9.57;;;6.55;;
61960;SDS011;47923;42.506;24.192;2023-05-07T06:00:18;8.90;;;6.35;;
61960;SDS011;47923;42.506;24.192;2023-05-07T06:02:47;11.15;;;7.05;;
61960;SDS011;47923;42.506;24.192;2023-05-07T06:05:13;10.68;;;6.30;;
61960;SDS011;47923;42.506;24.192;2023-05-07T06:07:38;8.75;;;5.60;;
61960;SDS011;47923;42.506;24.192;2023-05-07T06:10:04;9.70;;;6.18;;
61960;SDS011;47923;42.506;24.192;2023-05-07T06:12:30;11.23;;;7.78;;
61960;SDS011;47923;42.506;24.192;2023-05-07T06:14:55;9.50;;;6.97;;
61960;SDS011;47923;42.506;24.192;2023-05-07T06:17:20;10.63;;;6.15;;
61960;SDS011;47923;42.506;24.192;2023-05-07T06:19:46;8.75;;;5.85;;
61960;SDS011;47923;42.506;24.192;2023-05-07T06:22:11;8.90;;;5.25;;
61960;SDS011;47923;42.506;24.192;2023-05-07T06:24:37;8.85;;;6.75;;
61960;SDS011;47923;42.506;24.192;2023-05-07T06:27:02;10.57;;;5.80;;
61960;SDS011;47923;42.506;24.192;2023-05-07T06:29:28;9.55;;;5.68;;
61960;SDS011;47923;42.506;24.192;2023-05-07T06:31:56;8.07;;;4.97;;
61960;SDS011;47923;42.506;24.192;2023-05-07T06:34:30;7.25;;;4.57;;
61960;SDS011;47923;42.506;24.192;2023-05-07T06:36:56;7.60;;;4.20;;
61960;SDS011;47923;42.506;24.192;2023-05-07T06:39:21;6.50;;;4.03;;
61960;SDS011;47923;42.506;24.192;2023-05-07T06:41:47;9.85;;;5.28;;
61960;SDS011;47923;42.506;24.192;2023-05-07T06:44:12;8.15;;;4.40;;
61960;SDS011;47923;42.506;24.192;2023-05-07T06:46:38;7.57;;;3.70;;
61960;SDS011;47923;42.506;24.192;2023-05-07T06:49:03;6.60;;;3.83;;
61960;SDS011;47923;42.506;24.192;2023-05-07T06:51:29;8.18;;;4.53;;
61960;SDS011;47923;42.506;24.192;2023-05-07T06:53:55;7.57;;;4.75;;
61960;SDS011;47923;42.506;24.192;2023-05-07T06:56:21;5.57;;;3.30;;
61960;SDS011;47923;42.506;24.192;2023-05-07T06:58:47;6.35;;;3.90;;
61960;SDS011;47923;42.506;24.192;2023-05-07T07:01:13;4.25;;;3.03;;
61960;SDS011;47923;42.506;24.192;2023-05-07T07:03:38;6.82;;;2.67;;
61960;SDS011;47923;42.506;24.192;2023-05-07T07:06:04;4.97;;;2.97;;
61960;SDS011;47923;42.506;24.192;2023-05-07T07:08:30;6.55;;;2.67;;
61960;SDS011;47923;42.506;24.192;2023-05-07T07:10:55;4.90;;;2.53;;
61960;SDS011;47923;42.506;24.192;2023-05-07T07:13:21;8.32;;;3.10;;
61960;SDS011;47923;42.506;24.192;2023-05-07T07:15:46;4.75;;;3.00;;
61960;SDS011;47923;42.506;24.192;2023-05-07T07:18:12;5.88;;;2.45;;
61960;SDS011;47923;42.506;24.192;2023-05-07T07:20:38;6.97;;;2.92;;
61960;SDS011;47923;42.506;24.192;2023-05-07T07:23:03;5.93;;;2.95;;
61960;SDS011;47923;42.506;24.192;2023-05-07T07:25:29;4.90;;;2.80;;
61960;SDS011;47923;42.506;24.192;2023-05-07T07:27:54;4.25;;;2.80;;
61960;SDS011;47923;42.506;24.192;2023-05-07T07:30:20;4.47;;;2.80;;
61960;SDS011;47923;42.506;24.192;2023-05-07T07:32:45;5.55;;;2.63;;
61960;SDS011;47923;42.506;24.192;2023-05-07T07:35:11;4.32;;;2.50;;
61960;SDS011;47923;42.506;24.192;2023-05-07T07:37:36;4.35;;;2.20;;
61960;SDS011;47923;42.506;24.192;2023-05-07T07:40:02;4.40;;;2.35;;
61960;SDS011;47923;42.506;24.192;2023-05-07T07:42:28;6.53;;;2.35;;
61960;SDS011;47923;42.506;24.192;2023-05-07T07:44:54;3.42;;;2.30;;
61960;SDS011;47923;42.506;24.192;2023-05-07T07:47:19;6.50;;;3.13;;
61960;SDS011;47923;42.506;24.192;2023-05-07T07:49:45;5.95;;;2.78;;
61960;SDS011;47923;42.506;24.192;2023-05-07T07:52:10;4.60;;;2.67;;
61960;SDS011;47923;42.506;24.192;2023-05-07T07:54:36;5.88;;;3.20;;
61960;SDS011;47923;42.506;24.192;2023-05-07T07:57:01;4.10;;;2.78;;
61960;SDS011;47923;42.506;24.192;2023-05-07T07:59:27;6.72;;;2.88;;
61960;SDS011;47923;42.506;24.192;2023-05-07T08:01:52;4.13;;;2.50;;
61960;SDS011;47923;42.506;24.192;2023-05-07T08:04:20;6.32;;;3.05;;
61960;SDS011;47923;42.506;24.192;2023-05-07T08:06:46;4.93;;;2.70;;
61960;SDS011;47923;42.506;24.192;2023-05-07T08:09:12;6.50;;;2.63;;
61960;SDS011;47923;42.506;24.192;2023-05-07T08:11:38;5.72;;;2.83;;
61960;SDS011;47923;42.506;24.192;2023-05-07T08:14:03;3.63;;;2.30;;
61960;SDS011;47923;42.506;24.192;2023-05-07T08:16:29;4.28;;;2.30;;
61960;SDS011;47923;42.506;24.192;2023-05-07T08:18:55;5.07;;;2.83;;
61960;SDS011;47923;42.506;24.192;2023-05-07T08:21:22;4.38;;;2.40;;
61960;SDS011;47923;42.506;24.192;2023-05-07T08:23:47;4.22;;;2.28;;
61960;SDS011;47923;42.506;24.192;2023-05-07T08:26:13;4.60;;;2.50;;
61960;SDS011;47923;42.506;24.192;2023-05-07T08:28:47;4.82;;;2.53;;
61960;SDS011;47923;42.506;24.192;2023-05-07T08:34:44;3.55;;;2.30;;
61960;SDS011;47923;42.506;24.192;2023-05-07T08:37:19;5.18;;;2.80;;
61960;SDS011;47923;42.506;24.192;2023-05-07T08:39:48;4.88;;;2.50;;
61960;SDS011;47923;42.506;24.192;2023-05-07T08:42:34;4.97;;;2.20;;
61960;SDS011;47923;42.506;24.192;2023-05-07T08:45:06;4.88;;;2.38;;
61960;SDS011;47923;42.506;24.192;2023-05-07T08:47:39;5.03;;;2.60;;
61960;SDS011;47923;42.506;24.192;2023-05-07T08:50:08;4.20;;;2.47;;
61960;SDS011;47923;42.506;24.192;2023-05-07T08:52:40;5.88;;;2.65;;
61960;SDS011;47923;42.506;24.192;2023-05-07T08:55:06;5.15;;;2.60;;
61960;SDS011;47923;42.506;24.192;2023-05-07T08:57:32;3.92;;;2.40;;
61960;SDS011;47923;42.506;24.192;2023-05-07T08:59:58;5.93;;;2.42;;
61960;SDS011;47923;42.506;24.192;2023-05-07T09:02:23;7.07;;;3.00;;
61960;SDS011;47923;42.506;24.192;2023-05-07T09:04:49;6.32;;;2.60;;
61960;SDS011;47923;42.506;24.192;2023-05-07T09:07:15;5.05;;;2.65;;
61960;SDS011;47923;42.506;24.192;2023-05-07T09:09:41;5.35;;;2.70;;
61960;SDS011;47923;42.506;24.192;2023-05-07T09:12:09;7.65;;;3.10;;
61960;SDS011;47923;42.506;24.192;2023-05-07T09:14:35;6.65;;;2.50;;
61960;SDS011;47923;42.506;24.192;2023-05-07T09:17:01;5.32;;;2.42;;
61960;SDS011;47923;42.506;24.192;2023-05-07T09:19:26;4.60;;;2.25;;
61960;SDS011;47923;42.506;24.192;2023-05-07T09:22:02;4.80;;;2.55;;
61960;SDS011;47923;42.506;24.192;2023-05-07T09:24:29;4.35;;;2.97;;
61960;SDS011;47923;42.506;24.192;2023-05-07T09:27:00;3.92;;;2.40;;
61960;SDS011;47923;42.506;24.192;2023-05-07T09:29:27;4.00;;;2.25;;
61960;SDS011;47923;42.506;24.192;2023-05-07T09:32:06;7.40;;;2.80;;
61960;SDS011;47923;42.506;24.192;2023-05-07T09:34:33;4.93;;;2.30;;
61960;SDS011;47923;42.506;24.192;2023-05-07T09:37:03;6.00;;;2.60;;
61960;SDS011;47923;42.506;24.192;2023-05-07T09:39:38;4.88;;;2.17;;
61960;SDS011;47923;42.506;24.192;2023-05-07T09:42:11;5.57;;;2.47;;
61960;SDS011;47923;42.506;24.192;2023-05-07T09:44:37;3.80;;;2.42;;
61960;SDS011;47923;42.506;24.192;2023-05-07T09:47:07;7.05;;;2.72;;
61960;SDS011;47923;42.506;24.192;2023-05-07T09:49:34;5.53;;;2.55;;
61960;SDS011;47923;42.506;24.192;2023-05-07T09:52:02;4.55;;;2.47;;
61960;SDS011;47923;42.506;24.192;2023-05-07T09:54:31;5.03;;;2.63;;
61960;SDS011;47923;42.506;24.192;2023-05-07T09:56:57;5.85;;;2.30;;
61960;SDS011;47923;42.506;24.192;2023-05-07T09:59:23;4.78;;;2.55;;
61960;SDS011;47923;42.506;24.192;2023-05-07T10:01:50;4.75;;;2.75;;
61960;SDS011;47923;42.506;24.192;2023-05-07T10:04:18;4.55;;;2.38;;
61960;SDS011;47923;42.506;24.192;2023-05-07T10:06:45;6.20;;;3.10;;
61960;SDS011;47923;42.506;24.192;2023-05-07T10:09:12;4.05;;;2.22;;
61960;SDS011;47923;42.506;24.192;2023-05-07T10:11:38;5.22;;;2.58;;
61960;SDS011;47923;42.506;24.192;2023-05-07T10:14:05;6.53;;;3.17;;
61960;SDS011;47923;42.506;24.192;2023-05-07T10:16:31;6.43;;;3.00;;
61960;SDS011;47923;42.506;24.192;2023-05-07T10:19:02;5.57;;;2.80;;
61960;SDS011;47923;42.506;24.192;2023-05-07T10:21:33;6.80;;;3.17;;
61960;SDS011;47923;42.506;24.192;2023-05-07T10:24:05;8.13;;;2.97;;
61960;SDS011;47923;42.506;24.192;2023-05-07T10:26:39;7.65;;;3.10;;
61960;SDS011;47923;42.506;24.192;2023-05-07T10:31:57;5.65;;;3.47;;
61960;SDS011;47923;42.506;24.192;2023-05-07T10:34:29;5.85;;;3.00;;
61960;SDS011;47923;42.506;24.192;2023-05-07T10:37:00;9.65;;;3.25;;
61960;SDS011;47923;42.506;24.192;2023-05-07T10:39:28;9.43;;;3.80;;
61960;SDS011;47923;42.506;24.192;2023-05-07T10:41:54;6.45;;;3.50;;
61960;SDS011;47923;42.506;24.192;2023-05-07T10:44:29;5.88;;;3.42;;
61960;SDS011;47923;42.506;24.192;2023-05-07T10:47:04;7.40;;;3.22;;
61960;SDS011;47923;42.506;24.192;2023-05-07T10:49:31;5.60;;;2.70;;
61960;SDS011;47923;42.506;24.192;2023-05-07T10:52:15;5.70;;;2.72;;
61960;SDS011;47923;42.506;24.192;2023-05-07T10:57:50;6.45;;;3.17;;
61960;SDS011;47923;42.506;24.192;2023-05-07T11:05:25;6.25;;;3.03;;
61960;SDS011;47923;42.506;24.192;2023-05-07T11:07:55;5.13;;;3.05;;
61960;SDS011;47923;42.506;24.192;2023-05-07T11:10:21;7.93;;;3.28;;
61960;SDS011;47923;42.506;24.192;2023-05-07T11:12:47;3.90;;;2.50;;
61960;SDS011;47923;42.506;24.192;2023-05-07T11:15:14;5.65;;;3.13;;
61960;SDS011;47923;42.506;24.192;2023-05-07T11:17:58;6.30;;;2.97;;
61960;SDS011;47923;42.506;24.192;2023-05-07T11:26:00;8.43;;;3.55;;
61960;SDS011;47923;42.506;24.192;2023-05-07T11:31:01;7.10;;;3.15;;
61960;SDS011;47923;42.506;24.192;2023-05-07T11:33:27;7.40;;;3.00;;
61960;SDS011;47923;42.506;24.192;2023-05-07T11:35:54;10.23;;;3.45;;
61960;SDS011;47923;42.506;24.192;2023-05-07T11:38:20;7.38;;;3.17;;
61960;SDS011;47923;42.506;24.192;2023-05-07T11:40:49;5.43;;;2.63;;
61960;SDS011;47923;42.506;24.192;2023-05-07T11:43:16;5.18;;;3.00;;
61960;SDS011;47923;42.506;24.192;2023-05-07T11:45:41;6.00;;;3.40;;
61960;SDS011;47923;42.506;24.192;2023-05-07T11:48:07;6.75;;;3.25;;
61960;SDS011;47923;42.506;24.192;2023-05-07T11:50:32;8.35;;;3.00;;
61960;SDS011;47923;42.506;24.192;2023-05-07T11:52:58;5.47;;;2.53;;
61960;SDS011;47923;42.506;24.192;2023-05-07T11:55:23;6.13;;;3.08;;
61960;SDS011;47923;42.506;24.192;2023-05-07T11:57:50;4.80;;;2.60;;
61960;SDS011;47923;42.506;24.192;2023-05-07T12:00:15;5.40;;;2.50;;
61960;SDS011;47923;42.506;24.192;2023-05-07T12:02:42;5.05;;;2.90;;
61960;SDS011;47923;42.506;24.192;2023-05-07T12:05:07;5.13;;;2.83;;
61960;SDS011;47923;42.506;24.192;2023-05-07T12:07:33;6.15;;;3.03;;
61960;SDS011;47923;42.506;24.192;2023-05-07T12:09:59;5.72;;;3.33;;
61960;SDS011;47923;42.506;24.192;2023-05-07T12:12:29;6.47;;;3.10;;
61960;SDS011;47923;42.506;24.192;2023-05-07T12:14:54;4.88;;;2.97;;
61960;SDS011;47923;42.506;24.192;2023-05-07T12:17:20;6.43;;;3.15;;
61960;SDS011;47923;42.506;24.192;2023-05-07T12:19:46;6.22;;;3.03;;
61960;SDS011;47923;42.506;24.192;2023-05-07T12:22:12;7.15;;;2.85;;
61960;SDS011;47923;42.506;24.192;2023-05-07T12:24:57;5.18;;;2.78;;
61960;SDS011;47923;42.506;24.192;2023-05-07T12:27:23;7.50;;;3.28;;
61960;SDS011;47923;42.506;24.192;2023-05-07T12:29:49;6.80;;;2.90;;
61960;SDS011;47923;42.506;24.192;2023-05-07T12:32:19;9.25;;;3.33;;
61960;SDS011;47923;42.506;24.192;2023-05-07T12:34:46;5.25;;;3.03;;
61960;SDS011;47923;42.506;24.192;2023-05-07T12:37:14;7.38;;;3.10;;
61960;SDS011;47923;42.506;24.192;2023-05-07T12:39:49;5.85;;;3.13;;
61960;SDS011;47923;42.506;24.192;2023-05-07T12:42:32;8.32;;;3.03;;
61960;SDS011;47923;42.506;24.192;2023-05-07T12:45:00;6.03;;;3.15;;
61960;SDS011;47923;42.506;24.192;2023-05-07T12:47:32;7.70;;;3.40;;
61960;SDS011;47923;42.506;24.192;2023-05-07T12:49:58;6.43;;;3.00;;
61960;SDS011;47923;42.506;24.192;2023-05-07T12:52:24;5.95;;;3.40;;
61960;SDS011;47923;42.506;24.192;2023-05-07T12:54:50;6.65;;;3.13;;
61960;SDS011;47923;42.506;24.192;2023-05-07T12:57:15;7.32;;;3.30;;
61960;SDS011;47923;42.506;24.192;2023-05-07T12:59:44;4.75;;;2.60;;
61960;SDS011;47923;42.506;24.192;2023-05-07T13:02:10;7.43;;;3.40;;
61960;SDS011;47923;42.506;24.192;2023-05-07T13:04:35;6.82;;;3.30;;
61960;SDS011;47923;42.506;24.192;2023-05-07T13:07:01;8.80;;;3.83;;
61960;SDS011;47923;42.506;24.192;2023-05-07T13:09:27;6.18;;;3.35;;
61960;SDS011;47923;42.506;24.192;2023-05-07T13:11:54;5.95;;;3.13;;
61960;SDS011;47923;42.506;24.192;2023-05-07T13:14:19;5.40;;;2.72;;
61960;SDS011;47923;42.506;24.192;2023-05-07T13:16:46;5.30;;;2.83;;
61960;SDS011;47923;42.506;24.192;2023-05-07T13:19:12;8.07;;;3.10;;
61960;SDS011;47923;42.506;24.192;2023-05-07T13:21:37;5.18;;;2.70;;
61960;SDS011;47923;42.506;24.192;2023-05-07T13:24:03;6.45;;;3.42;;
61960;SDS011;47923;42.506;24.192;2023-05-07T13:26:29;6.85;;;3.30;;
61960;SDS011;47923;42.506;24.192;2023-05-07T13:28:55;5.97;;;3.45;;
61960;SDS011;47923;42.506;24.192;2023-05-07T13:31:21;5.82;;;3.10;;
61960;SDS011;47923;42.506;24.192;2023-05-07T13:33:47;5.57;;;3.67;;
61960;SDS011;47923;42.506;24.192;2023-05-07T13:36:12;6.82;;;3.25;;
61960;SDS011;47923;42.506;24.192;2023-05-07T13:38:38;8.75;;;3.65;;
61960;SDS011;47923;42.506;24.192;2023-05-07T13:41:05;6.18;;;3.25;;
61960;SDS011;47923;42.506;24.192;2023-05-07T13:43:30;6.15;;;3.30;;
61960;SDS011;47923;42.506;24.192;2023-05-07T13:45:58;6.07;;;3.47;;
61960;SDS011;47923;42.506;24.192;2023-05-07T13:48:24;9.30;;;3.45;;
61960;SDS011;47923;42.506;24.192;2023-05-07T13:50:50;6.30;;;4.00;;
61960;SDS011;47923;42.506;24.192;2023-05-07T13:53:15;5.45;;;3.50;;
61960;SDS011;47923;42.506;24.192;2023-05-07T13:55:43;6.20;;;3.40;;
61960;SDS011;47923;42.506;24.192;2023-05-07T13:58:09;4.97;;;3.20;;
61960;SDS011;47923;42.506;24.192;2023-05-07T14:00:35;6.10;;;3.25;;
61960;SDS011;47923;42.506;24.192;2023-05-07T14:03:04;6.88;;;3.22;;
61960;SDS011;47923;42.506;24.192;2023-05-07T14:05:30;6.47;;;3.40;;
61960;SDS011;47923;42.506;24.192;2023-05-07T14:07:58;4.97;;;2.85;;
61960;SDS011;47923;42.506;24.192;2023-05-07T14:10:25;6.95;;;3.20;;
61960;SDS011;47923;42.506;24.192;2023-05-07T14:12:51;7.35;;;4.07;;
61960;SDS011;47923;42.506;24.192;2023-05-07T14:15:17;8.57;;;3.45;;
61960;SDS011;47923;42.506;24.192;2023-05-07T14:17:43;8.25;;;3.22;;
61960;SDS011;47923;42.506;24.192;2023-05-07T14:20:09;5.05;;;3.05;;
61960;SDS011;47923;42.506;24.192;2023-05-07T14:22:36;6.78;;;3.33;;
61960;SDS011;47923;42.506;24.192;2023-05-07T14:25:02;7.47;;;3.08;;
61960;SDS011;47923;42.506;24.192;2023-05-07T14:27:29;5.82;;;3.08;;
61960;SDS011;47923;42.506;24.192;2023-05-07T14:29:55;6.07;;;3.40;;
61960;SDS011;47923;42.506;24.192;2023-05-07T14:32:21;7.75;;;3.65;;
61960;SDS011;47923;42.506;24.192;2023-05-07T14:34:47;10.02;;;3.95;;
61960;SDS011;47923;42.506;24.192;2023-05-07T14:37:12;6.68;;;3.55;;
61960;SDS011;47923;42.506;24.192;2023-05-07T14:39:38;6.45;;;3.22;;
61960;SDS011;47923;42.506;24.192;2023-05-07T14:42:04;5.25;;;3.10;;
61960;SDS011;47923;42.506;24.192;2023-05-07T14:44:30;7.03;;;3.20;;
61960;SDS011;47923;42.506;24.192;2023-05-07T14:46:56;7.32;;;3.63;;
61960;SDS011;47923;42.506;24.192;2023-05-07T14:49:21;6.40;;;3.17;;
61960;SDS011;47923;42.506;24.192;2023-05-07T14:51:47;7.15;;;3.40;;